sensor_id;sensor_type;location;lat;lon;timestamp;P1;durP1;ratioP1;P2;durP2;ratioP2
10114;SDS011;5097;43.260;27.812;2023-02-17T00:00:02;35.87;;;24.70;;
10114;SDS011;5097;43.260;27.812;2023-02-17T00:02:47;31.73;;;23.47;;
10114;SDS011;5097;43.260;27.812;2023-02-17T00:05:32;33.57;;;23.27;;
10114;SDS011;5097;43.260;27.812;2023-02-17T00:08:15;33.03;;;24.00;;
10114;SDS011;5097;43.260;27.812;2023-02-17T00:11:00;31.30;;;23.40;;
10114;SDS011;5097;43.260;27.812;2023-02-17T00:13:44;37.83;;;23.93;;
10114;SDS011;5097;43.260;27.812;2023-02-17T00:16:28;33.90;;;24.77;;
10114;SDS011;5097;43.260;27.812;2023-02-17T00:19:12;30.93;;;23.47;;
10114;SDS011;5097;43.260;27.812;2023-02-17T00:22:09;35.97;;;24.80;;
10114;SDS011;5097;43.260;27.812;2023-02-17T00:24:53;31.97;;;24.00;;
10114;SDS011;5097;43.260;27.812;2023-02-17T00:27:37;32.73;;;24.73;;
10114;SDS011;5097;43.260;27.812;2023-02-17T00:30:21;32.50;;;24.70;;
10114;SDS011;5097;43.260;27.812;2023-02-17T00:33:07;38.53;;;26.87;;
10114;SDS011;5097;43.260;27.812;2023-02-17T00:35:50;43.10;;;28.43;;
10114;SDS011;5097;43.260;27.812;2023-02-17T00:38:36;47.77;;;29.77;;
10114;SDS011;5097;43.260;27.812;2023-02-17T00:41:20;43.83;;;28.90;;
10114;SDS011;5097;43.260;27.812;2023-02-17T00:44:04;37.73;;;27.43;;
10114;SDS011;5097;43.260;27.812;2023-02-17T00:46:48;39.00;;;27.57;;
10114;SDS011;5097;43.260;27.812;2023-02-17T00:49:34;36.63;;;26.47;;
10114;SDS011;5097;43.260;27.812;2023-02-17T00:52:18;39.83;;;27.53;;
10114;SDS011;5097;43.260;27.812;2023-02-17T00:55:03;38.80;;;25.77;;
10114;SDS011;5097;43.260;27.812;2023-02-17T00:57:47;37.73;;;26.90;;
10114;SDS011;5097;43.260;27.812;2023-02-17T01:00:32;38.23;;;27.90;;
10114;SDS011;5097;43.260;27.812;2023-02-17T01:03:16;36.97;;;27.40;;
10114;SDS011;5097;43.260;27.812;2023-02-17T01:06:04;35.13;;;26.13;;
10114;SDS011;5097;43.260;27.812;2023-02-17T01:08:50;43.67;;;30.90;;
10114;SDS011;5097;43.260;27.812;2023-02-17T01:11:36;40.13;;;28.60;;
10114;SDS011;5097;43.260;27.812;2023-02-17T01:14:19;41.57;;;28.87;;
10114;SDS011;5097;43.260;27.812;2023-02-17T01:17:03;37.30;;;27.17;;
10114;SDS011;5097;43.260;27.812;2023-02-17T01:19:47;37.33;;;27.33;;
10114;SDS011;5097;43.260;27.812;2023-02-17T01:22:32;33.63;;;24.47;;
10114;SDS011;5097;43.260;27.812;2023-02-17T01:25:16;31.13;;;23.93;;
10114;SDS011;5097;43.260;27.812;2023-02-17T01:28:01;30.23;;;23.83;;
10114;SDS011;5097;43.260;27.812;2023-02-17T01:30:45;37.57;;;26.00;;
10114;SDS011;5097;43.260;27.812;2023-02-17T01:33:30;31.63;;;23.27;;
10114;SDS011;5097;43.260;27.812;2023-02-17T01:36:16;34.23;;;25.43;;
10114;SDS011;5097;43.260;27.812;2023-02-17T01:39:00;32.63;;;24.57;;
10114;SDS011;5097;43.260;27.812;2023-02-17T01:41:44;32.53;;;23.50;;
10114;SDS011;5097;43.260;27.812;2023-02-17T01:44:31;34.00;;;24.10;;
10114;SDS011;5097;43.260;27.812;2023-02-17T01:47:15;33.93;;;24.87;;
10114;SDS011;5097;43.260;27.812;2023-02-17T01:49:59;31.47;;;22.00;;
10114;SDS011;5097;43.260;27.812;2023-02-17T01:52:44;29.83;;;22.97;;
10114;SDS011;5097;43.260;27.812;2023-02-17T01:55:28;28.93;;;21.83;;
10114;SDS011;5097;43.260;27.812;2023-02-17T01:58:19;29.30;;;21.80;;
10114;SDS011;5097;43.260;27.812;2023-02-17T02:01:08;31.77;;;23.50;;
10114;SDS011;5097;43.260;27.812;2023-02-17T02:03:52;29.87;;;22.57;;
10114;SDS011;5097;43.260;27.812;2023-02-17T02:06:37;32.73;;;22.30;;
10114;SDS011;5097;43.260;27.812;2023-02-17T02:09:24;31.30;;;21.73;;
10114;SDS011;5097;43.260;27.812;2023-02-17T02:12:19;34.60;;;23.13;;
10114;SDS011;5097;43.260;27.812;2023-02-17T02:15:05;30.63;;;22.57;;
10114;SDS011;5097;43.260;27.812;2023-02-17T02:21:15;30.10;;;22.20;;
10114;SDS011;5097;43.260;27.812;2023-02-17T02:24:17;32.30;;;21.20;;
10114;SDS011;5097;43.260;27.812;2023-02-17T02:27:21;33.07;;;24.10;;
10114;SDS011;5097;43.260;27.812;2023-02-17T02:30:26;31.73;;;22.43;;
10114;SDS011;5097;43.260;27.812;2023-02-17T02:33:26;30.10;;;21.60;;
10114;SDS011;5097;43.260;27.812;2023-02-17T02:36:17;31.30;;;22.73;;
10114;SDS011;5097;43.260;27.812;2023-02-17T02:39:06;31.63;;;22.23;;
10114;SDS011;5097;43.260;27.812;2023-02-17T02:41:54;33.00;;;23.77;;
10114;SDS011;5097;43.260;27.812;2023-02-17T02:44:41;32.57;;;23.17;;
10114;SDS011;5097;43.260;27.812;2023-02-17T02:47:39;32.77;;;23.67;;
10114;SDS011;5097;43.260;27.812;2023-02-17T02:50:30;31.97;;;23.87;;
10114;SDS011;5097;43.260;27.812;2023-02-17T02:53:44;29.97;;;22.20;;
10114;SDS011;5097;43.260;27.812;2023-02-17T02:56:40;30.10;;;21.57;;
10114;SDS011;5097;43.260;27.812;2023-02-17T02:59:43;30.33;;;22.43;;
10114;SDS011;5097;43.260;27.812;2023-02-17T03:02:35;29.30;;;21.93;;
10114;SDS011;5097;43.260;27.812;2023-02-17T03:05:27;29.63;;;20.37;;
10114;SDS011;5097;43.260;27.812;2023-02-17T03:08:18;30.20;;;19.03;;
10114;SDS011;5097;43.260;27.812;2023-02-17T03:11:07;28.70;;;20.13;;
10114;SDS011;5097;43.260;27.812;2023-02-17T03:13:50;26.07;;;19.60;;
10114;SDS011;5097;43.260;27.812;2023-02-17T03:16:35;26.23;;;19.10;;
10114;SDS011;5097;43.260;27.812;2023-02-17T03:19:21;28.23;;;19.70;;
10114;SDS011;5097;43.260;27.812;2023-02-17T03:22:10;27.70;;;19.63;;
10114;SDS011;5097;43.260;27.812;2023-02-17T03:25:02;28.67;;;20.13;;
10114;SDS011;5097;43.260;27.812;2023-02-17T03:27:46;25.37;;;19.43;;
10114;SDS011;5097;43.260;27.812;2023-02-17T03:30:30;25.13;;;18.73;;
10114;SDS011;5097;43.260;27.812;2023-02-17T03:33:14;28.07;;;18.60;;
10114;SDS011;5097;43.260;27.812;2023-02-17T03:35:58;23.77;;;17.67;;
10114;SDS011;5097;43.260;27.812;2023-02-17T03:38:43;23.17;;;17.10;;
10114;SDS011;5097;43.260;27.812;2023-02-17T03:41:27;25.60;;;19.00;;
10114;SDS011;5097;43.260;27.812;2023-02-17T03:44:11;21.10;;;16.70;;
10114;SDS011;5097;43.260;27.812;2023-02-17T03:46:55;24.63;;;18.23;;
10114;SDS011;5097;43.260;27.812;2023-02-17T03:49:38;22.93;;;16.97;;
10114;SDS011;5097;43.260;27.812;2023-02-17T03:52:22;24.83;;;18.37;;
10114;SDS011;5097;43.260;27.812;2023-02-17T03:55:07;23.03;;;17.90;;
10114;SDS011;5097;43.260;27.812;2023-02-17T03:57:53;31.57;;;21.47;;
10114;SDS011;5097;43.260;27.812;2023-02-17T04:00:36;28.97;;;21.03;;
10114;SDS011;5097;43.260;27.812;2023-02-17T04:03:20;31.40;;;22.73;;
10114;SDS011;5097;43.260;27.812;2023-02-17T04:06:04;27.83;;;20.43;;
10114;SDS011;5097;43.260;27.812;2023-02-17T04:08:49;24.63;;;18.47;;
10114;SDS011;5097;43.260;27.812;2023-02-17T04:11:35;29.70;;;18.37;;
10114;SDS011;5097;43.260;27.812;2023-02-17T04:14:19;26.70;;;18.60;;
10114;SDS011;5097;43.260;27.812;2023-02-17T04:17:02;26.00;;;18.33;;
10114;SDS011;5097;43.260;27.812;2023-02-17T04:19:46;24.70;;;19.00;;
10114;SDS011;5097;43.260;27.812;2023-02-17T04:22:30;24.60;;;18.17;;
10114;SDS011;5097;43.260;27.812;2023-02-17T04:25:14;72.67;;;45.17;;
10114;SDS011;5097;43.260;27.812;2023-02-17T04:27:59;30.10;;;20.87;;
10114;SDS011;5097;43.260;27.812;2023-02-17T04:30:43;28.27;;;20.63;;
10114;SDS011;5097;43.260;27.812;2023-02-17T04:33:27;26.77;;;20.00;;
10114;SDS011;5097;43.260;27.812;2023-02-17T04:36:11;33.20;;;23.80;;
10114;SDS011;5097;43.260;27.812;2023-02-17T04:38:55;48.13;;;31.27;;
10114;SDS011;5097;43.260;27.812;2023-02-17T04:41:39;29.57;;;20.73;;
10114;SDS011;5097;43.260;27.812;2023-02-17T04:44:25;52.87;;;32.07;;
10114;SDS011;5097;43.260;27.812;2023-02-17T04:47:08;71.07;;;39.40;;
10114;SDS011;5097;43.260;27.812;2023-02-17T04:49:52;60.50;;;32.87;;
10114;SDS011;5097;43.260;27.812;2023-02-17T04:52:36;68.47;;;36.27;;
10114;SDS011;5097;43.260;27.812;2023-02-17T04:55:21;37.20;;;26.47;;
10114;SDS011;5097;43.260;27.812;2023-02-17T04:58:04;27.30;;;19.97;;
10114;SDS011;5097;43.260;27.812;2023-02-17T05:00:50;29.83;;;20.27;;
10114;SDS011;5097;43.260;27.812;2023-02-17T05:03:34;32.63;;;22.20;;
10114;SDS011;5097;43.260;27.812;2023-02-17T05:06:17;40.03;;;26.80;;
10114;SDS011;5097;43.260;27.812;2023-02-17T05:09:01;40.27;;;26.50;;
10114;SDS011;5097;43.260;27.812;2023-02-17T05:11:45;27.87;;;20.67;;
10114;SDS011;5097;43.260;27.812;2023-02-17T05:14:29;34.40;;;22.47;;
10114;SDS011;5097;43.260;27.812;2023-02-17T05:17:14;26.57;;;19.57;;
10114;SDS011;5097;43.260;27.812;2023-02-17T05:19:58;25.43;;;19.87;;
10114;SDS011;5097;43.260;27.812;2023-02-17T05:22:43;30.77;;;20.30;;
10114;SDS011;5097;43.260;27.812;2023-02-17T05:25:27;29.80;;;21.13;;
10114;SDS011;5097;43.260;27.812;2023-02-17T05:28:11;28.93;;;20.47;;
10114;SDS011;5097;43.260;27.812;2023-02-17T05:30:55;25.90;;;19.77;;
10114;SDS011;5097;43.260;27.812;2023-02-17T05:33:40;24.23;;;19.00;;
10114;SDS011;5097;43.260;27.812;2023-02-17T05:36:24;63.00;;;38.87;;
10114;SDS011;5097;43.260;27.812;2023-02-17T05:39:08;78.10;;;47.57;;
10114;SDS011;5097;43.260;27.812;2023-02-17T05:41:52;27.17;;;20.40;;
10114;SDS011;5097;43.260;27.812;2023-02-17T05:44:37;27.83;;;19.93;;
10114;SDS011;5097;43.260;27.812;2023-02-17T05:47:21;27.57;;;20.00;;
10114;SDS011;5097;43.260;27.812;2023-02-17T05:50:10;26.83;;;18.90;;
10114;SDS011;5097;43.260;27.812;2023-02-17T05:52:54;28.53;;;19.00;;
10114;SDS011;5097;43.260;27.812;2023-02-17T05:55:38;27.47;;;18.47;;
10114;SDS011;5097;43.260;27.812;2023-02-17T05:58:22;63.40;;;32.30;;
10114;SDS011;5097;43.260;27.812;2023-02-17T06:01:06;43.87;;;26.63;;
10114;SDS011;5097;43.260;27.812;2023-02-17T06:03:50;36.20;;;22.63;;
10114;SDS011;5097;43.260;27.812;2023-02-17T06:06:36;39.10;;;24.30;;
10114;SDS011;5097;43.260;27.812;2023-02-17T06:09:20;45.47;;;27.80;;
10114;SDS011;5097;43.260;27.812;2023-02-17T06:12:04;105.47;;;50.47;;
10114;SDS011;5097;43.260;27.812;2023-02-17T06:14:48;110.33;;;50.70;;
10114;SDS011;5097;43.260;27.812;2023-02-17T06:17:31;106.53;;;48.97;;
10114;SDS011;5097;43.260;27.812;2023-02-17T06:20:15;129.03;;;57.13;;
10114;SDS011;5097;43.260;27.812;2023-02-17T06:23:01;110.20;;;53.37;;
10114;SDS011;5097;43.260;27.812;2023-02-17T06:25:45;107.97;;;51.17;;
10114;SDS011;5097;43.260;27.812;2023-02-17T06:28:28;96.77;;;49.23;;
10114;SDS011;5097;43.260;27.812;2023-02-17T06:31:15;64.77;;;39.87;;
10114;SDS011;5097;43.260;27.812;2023-02-17T06:33:59;68.73;;;40.90;;
10114;SDS011;5097;43.260;27.812;2023-02-17T06:36:47;47.70;;;30.70;;
10114;SDS011;5097;43.260;27.812;2023-02-17T06:39:32;57.50;;;38.37;;
10114;SDS011;5097;43.260;27.812;2023-02-17T06:42:16;80.47;;;48.57;;
10114;SDS011;5097;43.260;27.812;2023-02-17T06:45:00;81.20;;;55.50;;
10114;SDS011;5097;43.260;27.812;2023-02-17T06:47:47;64.23;;;45.27;;
10114;SDS011;5097;43.260;27.812;2023-02-17T06:50:31;60.57;;;46.20;;
10114;SDS011;5097;43.260;27.812;2023-02-17T06:53:15;53.90;;;41.63;;
10114;SDS011;5097;43.260;27.812;2023-02-17T06:56:00;50.97;;;36.07;;
10114;SDS011;5097;43.260;27.812;2023-02-17T06:58:44;40.50;;;33.40;;
10114;SDS011;5097;43.260;27.812;2023-02-17T07:01:27;35.07;;;30.03;;
10114;SDS011;5097;43.260;27.812;2023-02-17T07:04:12;39.07;;;30.37;;
10114;SDS011;5097;43.260;27.812;2023-02-17T07:06:56;41.77;;;31.23;;
10114;SDS011;5097;43.260;27.812;2023-02-17T07:09:39;43.03;;;33.13;;
10114;SDS011;5097;43.260;27.812;2023-02-17T07:12:25;40.63;;;30.20;;
10114;SDS011;5097;43.260;27.812;2023-02-17T07:15:10;42.67;;;31.03;;
10114;SDS011;5097;43.260;27.812;2023-02-17T07:17:54;39.07;;;29.00;;
10114;SDS011;5097;43.260;27.812;2023-02-17T07:20:37;35.73;;;25.60;;
10114;SDS011;5097;43.260;27.812;2023-02-17T07:23:22;33.57;;;25.33;;
10114;SDS011;5097;43.260;27.812;2023-02-17T07:26:06;36.87;;;26.23;;
10114;SDS011;5097;43.260;27.812;2023-02-17T07:28:53;43.33;;;25.33;;
10114;SDS011;5097;43.260;27.812;2023-02-17T07:31:37;35.03;;;25.17;;
10114;SDS011;5097;43.260;27.812;2023-02-17T07:34:21;40.47;;;30.33;;
10114;SDS011;5097;43.260;27.812;2023-02-17T07:37:04;31.27;;;24.07;;
10114;SDS011;5097;43.260;27.812;2023-02-17T07:39:48;28.13;;;21.80;;
10114;SDS011;5097;43.260;27.812;2023-02-17T07:42:33;22.30;;;17.90;;
10114;SDS011;5097;43.260;27.812;2023-02-17T07:45:18;25.27;;;18.37;;
10114;SDS011;5097;43.260;27.812;2023-02-17T07:48:02;36.97;;;30.70;;
10114;SDS011;5097;43.260;27.812;2023-02-17T07:50:47;42.67;;;29.17;;
10114;SDS011;5097;43.260;27.812;2023-02-17T07:53:31;44.93;;;33.40;;
10114;SDS011;5097;43.260;27.812;2023-02-17T07:56:15;40.87;;;30.43;;
10114;SDS011;5097;43.260;27.812;2023-02-17T07:59:01;32.60;;;24.60;;
10114;SDS011;5097;43.260;27.812;2023-02-17T08:01:46;59.47;;;41.07;;
10114;SDS011;5097;43.260;27.812;2023-02-17T08:04:31;31.57;;;22.73;;
10114;SDS011;5097;43.260;27.812;2023-02-17T08:07:17;30.80;;;21.77;;
10114;SDS011;5097;43.260;27.812;2023-02-17T08:10:01;28.90;;;21.47;;
10114;SDS011;5097;43.260;27.812;2023-02-17T08:13:03;33.37;;;22.70;;
10114;SDS011;5097;43.260;27.812;2023-02-17T08:16:03;27.47;;;21.00;;
10114;SDS011;5097;43.260;27.812;2023-02-17T08:18:49;26.73;;;18.90;;
10114;SDS011;5097;43.260;27.812;2023-02-17T08:21:33;26.33;;;18.60;;
10114;SDS011;5097;43.260;27.812;2023-02-17T08:24:17;25.43;;;18.43;;
10114;SDS011;5097;43.260;27.812;2023-02-17T08:27:02;31.23;;;18.43;;
10114;SDS011;5097;43.260;27.812;2023-02-17T08:29:48;27.37;;;18.93;;
10114;SDS011;5097;43.260;27.812;2023-02-17T08:32:32;26.73;;;18.40;;
10114;SDS011;5097;43.260;27.812;2023-02-17T08:35:17;24.77;;;18.93;;
10114;SDS011;5097;43.260;27.812;2023-02-17T08:38:03;23.73;;;18.73;;
10114;SDS011;5097;43.260;27.812;2023-02-17T08:40:47;24.97;;;19.50;;
10114;SDS011;5097;43.260;27.812;2023-02-17T08:43:32;26.87;;;17.77;;
10114;SDS011;5097;43.260;27.812;2023-02-17T08:46:16;29.33;;;19.03;;
10114;SDS011;5097;43.260;27.812;2023-02-17T08:49:01;27.10;;;19.07;;
10114;SDS011;5097;43.260;27.812;2023-02-17T08:51:47;24.47;;;18.47;;
10114;SDS011;5097;43.260;27.812;2023-02-17T08:54:32;24.90;;;18.67;;
10114;SDS011;5097;43.260;27.812;2023-02-17T08:57:16;25.17;;;19.30;;
10114;SDS011;5097;43.260;27.812;2023-02-17T09:00:04;25.37;;;20.23;;
10114;SDS011;5097;43.260;27.812;2023-02-17T09:02:50;26.57;;;20.03;;
10114;SDS011;5097;43.260;27.812;2023-02-17T09:05:34;25.13;;;19.07;;
10114;SDS011;5097;43.260;27.812;2023-02-17T09:08:19;25.57;;;20.27;;
10114;SDS011;5097;43.260;27.812;2023-02-17T09:11:04;32.43;;;20.80;;
10114;SDS011;5097;43.260;27.812;2023-02-17T09:13:50;27.37;;;19.73;;
10114;SDS011;5097;43.260;27.812;2023-02-17T09:16:34;27.40;;;19.63;;
10114;SDS011;5097;43.260;27.812;2023-02-17T09:19:21;23.80;;;18.30;;
10114;SDS011;5097;43.260;27.812;2023-02-17T09:22:07;25.90;;;19.40;;
10114;SDS011;5097;43.260;27.812;2023-02-17T09:25:00;26.43;;;19.97;;
10114;SDS011;5097;43.260;27.812;2023-02-17T09:27:44;27.37;;;20.50;;
10114;SDS011;5097;43.260;27.812;2023-02-17T09:30:28;24.17;;;18.97;;
10114;SDS011;5097;43.260;27.812;2023-02-17T09:33:12;27.27;;;21.33;;
10114;SDS011;5097;43.260;27.812;2023-02-17T09:35:56;29.27;;;19.53;;
10114;SDS011;5097;43.260;27.812;2023-02-17T09:38:41;28.93;;;21.47;;
10114;SDS011;5097;43.260;27.812;2023-02-17T09:41:27;25.17;;;19.97;;
10114;SDS011;5097;43.260;27.812;2023-02-17T09:44:19;26.63;;;19.70;;
10114;SDS011;5097;43.260;27.812;2023-02-17T09:47:06;28.07;;;21.10;;
10114;SDS011;5097;43.260;27.812;2023-02-17T09:49:55;29.90;;;21.43;;
10114;SDS011;5097;43.260;27.812;2023-02-17T09:52:46;30.53;;;20.90;;
10114;SDS011;5097;43.260;27.812;2023-02-17T09:55:38;32.83;;;22.20;;
10114;SDS011;5097;43.260;27.812;2023-02-17T09:58:30;26.90;;;20.83;;
10114;SDS011;5097;43.260;27.812;2023-02-17T10:01:17;28.27;;;22.00;;
10114;SDS011;5097;43.260;27.812;2023-02-17T10:04:04;27.80;;;20.80;;
10114;SDS011;5097;43.260;27.812;2023-02-17T10:06:53;33.07;;;22.70;;
10114;SDS011;5097;43.260;27.812;2023-02-17T10:09:45;29.67;;;21.33;;
10114;SDS011;5097;43.260;27.812;2023-02-17T10:12:33;26.37;;;20.93;;
10114;SDS011;5097;43.260;27.812;2023-02-17T10:15:25;27.83;;;21.60;;
10114;SDS011;5097;43.260;27.812;2023-02-17T10:18:15;28.17;;;20.67;;
10114;SDS011;5097;43.260;27.812;2023-02-17T10:21:05;28.63;;;20.50;;
10114;SDS011;5097;43.260;27.812;2023-02-17T10:23:54;29.07;;;20.67;;
10114;SDS011;5097;43.260;27.812;2023-02-17T10:26:44;26.17;;;20.00;;
10114;SDS011;5097;43.260;27.812;2023-02-17T10:29:37;26.37;;;19.70;;
10114;SDS011;5097;43.260;27.812;2023-02-17T10:32:33;27.20;;;20.90;;
10114;SDS011;5097;43.260;27.812;2023-02-17T10:35:30;24.77;;;20.00;;
10114;SDS011;5097;43.260;27.812;2023-02-17T10:38:29;30.87;;;19.73;;
10114;SDS011;5097;43.260;27.812;2023-02-17T10:41:25;23.93;;;17.47;;
10114;SDS011;5097;43.260;27.812;2023-02-17T10:44:15;27.23;;;20.07;;
10114;SDS011;5097;43.260;27.812;2023-02-17T10:47:03;25.13;;;19.70;;
10114;SDS011;5097;43.260;27.812;2023-02-17T10:49:50;25.43;;;19.57;;
10114;SDS011;5097;43.260;27.812;2023-02-17T10:52:37;28.57;;;18.97;;
10114;SDS011;5097;43.260;27.812;2023-02-17T10:55:24;23.60;;;19.17;;
10114;SDS011;5097;43.260;27.812;2023-02-17T10:58:17;24.47;;;18.33;;
10114;SDS011;5097;43.260;27.812;2023-02-17T11:01:07;26.53;;;20.53;;
10114;SDS011;5097;43.260;27.812;2023-02-17T11:03:58;26.53;;;19.77;;
10114;SDS011;5097;43.260;27.812;2023-02-17T11:06:47;27.23;;;18.83;;
10114;SDS011;5097;43.260;27.812;2023-02-17T11:09:32;26.83;;;20.53;;
10114;SDS011;5097;43.260;27.812;2023-02-17T11:12:19;27.90;;;19.40;;
10114;SDS011;5097;43.260;27.812;2023-02-17T11:15:14;27.33;;;19.40;;
10114;SDS011;5097;43.260;27.812;2023-02-17T11:18:00;25.20;;;18.93;;
10114;SDS011;5097;43.260;27.812;2023-02-17T11:20:58;22.27;;;17.67;;
10114;SDS011;5097;43.260;27.812;2023-02-17T11:23:49;24.93;;;17.30;;
10114;SDS011;5097;43.260;27.812;2023-02-17T11:26:36;24.87;;;18.13;;
10114;SDS011;5097;43.260;27.812;2023-02-17T11:29:21;25.77;;;17.83;;
10114;SDS011;5097;43.260;27.812;2023-02-17T11:32:06;23.07;;;18.17;;
10114;SDS011;5097;43.260;27.812;2023-02-17T11:34:55;22.97;;;16.57;;
10114;SDS011;5097;43.260;27.812;2023-02-17T11:37:40;20.53;;;16.50;;
10114;SDS011;5097;43.260;27.812;2023-02-17T11:40:26;23.13;;;17.77;;
10114;SDS011;5097;43.260;27.812;2023-02-17T11:43:14;20.67;;;17.83;;
10114;SDS011;5097;43.260;27.812;2023-02-17T11:46:04;25.50;;;17.57;;
10114;SDS011;5097;43.260;27.812;2023-02-17T11:49:14;23.97;;;17.73;;
10114;SDS011;5097;43.260;27.812;2023-02-17T11:52:27;24.97;;;18.43;;
10114;SDS011;5097;43.260;27.812;2023-02-17T11:55:21;25.13;;;16.73;;
10114;SDS011;5097;43.260;27.812;2023-02-17T11:58:16;23.60;;;17.33;;
10114;SDS011;5097;43.260;27.812;2023-02-17T12:01:16;19.57;;;14.80;;
10114;SDS011;5097;43.260;27.812;2023-02-17T12:04:14;17.50;;;13.07;;
10114;SDS011;5097;43.260;27.812;2023-02-17T12:07:29;17.57;;;13.50;;
10114;SDS011;5097;43.260;27.812;2023-02-17T12:10:24;17.17;;;13.20;;
10114;SDS011;5097;43.260;27.812;2023-02-17T12:13:24;16.77;;;13.37;;
10114;SDS011;5097;43.260;27.812;2023-02-17T12:16:17;19.73;;;15.33;;
10114;SDS011;5097;43.260;27.812;2023-02-17T12:19:13;16.13;;;12.00;;
10114;SDS011;5097;43.260;27.812;2023-02-17T12:22:19;17.03;;;12.80;;
10114;SDS011;5097;43.260;27.812;2023-02-17T12:25:14;19.47;;;15.60;;
10114;SDS011;5097;43.260;27.812;2023-02-17T12:28:12;18.60;;;14.00;;
10114;SDS011;5097;43.260;27.812;2023-02-17T12:31:15;19.37;;;14.87;;
10114;SDS011;5097;43.260;27.812;2023-02-17T12:34:11;15.87;;;13.50;;
10114;SDS011;5097;43.260;27.812;2023-02-17T12:37:02;21.40;;;12.83;;
10114;SDS011;5097;43.260;27.812;2023-02-17T12:39:50;16.70;;;13.40;;
10114;SDS011;5097;43.260;27.812;2023-02-17T12:42:37;18.97;;;15.07;;
10114;SDS011;5097;43.260;27.812;2023-02-17T12:45:27;17.37;;;13.17;;
10114;SDS011;5097;43.260;27.812;2023-02-17T12:48:23;18.90;;;14.43;;
10114;SDS011;5097;43.260;27.812;2023-02-17T12:51:17;19.13;;;14.33;;
10114;SDS011;5097;43.260;27.812;2023-02-17T12:54:06;16.70;;;12.93;;
10114;SDS011;5097;43.260;27.812;2023-02-17T12:57:02;17.33;;;13.10;;
10114;SDS011;5097;43.260;27.812;2023-02-17T12:59:53;17.57;;;13.40;;
10114;SDS011;5097;43.260;27.812;2023-02-17T13:02:40;16.37;;;12.53;;
10114;SDS011;5097;43.260;27.812;2023-02-17T13:05:27;15.70;;;12.97;;
10114;SDS011;5097;43.260;27.812;2023-02-17T13:08:17;16.90;;;13.53;;
10114;SDS011;5097;43.260;27.812;2023-02-17T13:11:06;14.43;;;11.77;;
10114;SDS011;5097;43.260;27.812;2023-02-17T13:13:53;14.33;;;11.93;;
10114;SDS011;5097;43.260;27.812;2023-02-17T13:16:41;15.20;;;11.57;;
10114;SDS011;5097;43.260;27.812;2023-02-17T13:19:26;13.77;;;11.83;;
10114;SDS011;5097;43.260;27.812;2023-02-17T13:22:20;14.77;;;12.53;;
10114;SDS011;5097;43.260;27.812;2023-02-17T13:25:06;14.57;;;12.47;;
10114;SDS011;5097;43.260;27.812;2023-02-17T13:27:54;15.97;;;12.27;;
10114;SDS011;5097;43.260;27.812;2023-02-17T13:30:39;16.40;;;13.17;;
10114;SDS011;5097;43.260;27.812;2023-02-17T13:33:28;17.60;;;13.23;;
10114;SDS011;5097;43.260;27.812;2023-02-17T13:36:15;15.00;;;12.97;;
10114;SDS011;5097;43.260;27.812;2023-02-17T13:39:28;17.43;;;13.47;;
10114;SDS011;5097;43.260;27.812;2023-02-17T13:42:34;18.80;;;13.67;;
10114;SDS011;5097;43.260;27.812;2023-02-17T13:45:22;18.43;;;12.80;;
10114;SDS011;5097;43.260;27.812;2023-02-17T13:48:13;15.27;;;13.67;;
10114;SDS011;5097;43.260;27.812;2023-02-17T13:51:05;17.60;;;13.23;;
10114;SDS011;5097;43.260;27.812;2023-02-17T13:53:51;19.43;;;14.10;;
10114;SDS011;5097;43.260;27.812;2023-02-17T13:56:36;25.57;;;16.60;;
10114;SDS011;5097;43.260;27.812;2023-02-17T13:59:23;17.73;;;14.30;;
10114;SDS011;5097;43.260;27.812;2023-02-17T14:02:15;24.77;;;18.87;;
10114;SDS011;5097;43.260;27.812;2023-02-17T14:05:18;23.03;;;17.27;;
10114;SDS011;5097;43.260;27.812;2023-02-17T14:08:04;24.80;;;18.67;;
10114;SDS011;5097;43.260;27.812;2023-02-17T14:10:50;23.73;;;19.17;;
10114;SDS011;5097;43.260;27.812;2023-02-17T14:13:36;22.27;;;17.20;;
10114;SDS011;5097;43.260;27.812;2023-02-17T14:16:25;20.63;;;15.37;;
10114;SDS011;5097;43.260;27.812;2023-02-17T14:19:12;25.13;;;19.77;;
10114;SDS011;5097;43.260;27.812;2023-02-17T14:22:00;26.47;;;20.27;;
10114;SDS011;5097;43.260;27.812;2023-02-17T14:24:46;21.60;;;16.80;;
10114;SDS011;5097;43.260;27.812;2023-02-17T14:27:41;23.77;;;18.93;;
10114;SDS011;5097;43.260;27.812;2023-02-17T14:30:29;22.67;;;15.87;;
10114;SDS011;5097;43.260;27.812;2023-02-17T14:33:19;21.20;;;16.67;;
10114;SDS011;5097;43.260;27.812;2023-02-17T14:36:05;22.40;;;17.50;;
10114;SDS011;5097;43.260;27.812;2023-02-17T14:38:53;19.90;;;15.50;;
10114;SDS011;5097;43.260;27.812;2023-02-17T14:41:38;21.83;;;16.67;;
10114;SDS011;5097;43.260;27.812;2023-02-17T14:44:22;23.67;;;18.10;;
10114;SDS011;5097;43.260;27.812;2023-02-17T14:47:07;28.20;;;22.40;;
10114;SDS011;5097;43.260;27.812;2023-02-17T14:49:51;22.03;;;17.97;;
10114;SDS011;5097;43.260;27.812;2023-02-17T14:52:36;44.63;;;36.90;;
10114;SDS011;5097;43.260;27.812;2023-02-17T14:55:26;23.70;;;18.73;;
10114;SDS011;5097;43.260;27.812;2023-02-17T14:58:16;34.13;;;25.07;;
10114;SDS011;5097;43.260;27.812;2023-02-17T15:01:02;24.60;;;18.37;;
10114;SDS011;5097;43.260;27.812;2023-02-17T15:03:48;32.20;;;22.27;;
10114;SDS011;5097;43.260;27.812;2023-02-17T15:06:34;34.17;;;26.73;;
10114;SDS011;5097;43.260;27.812;2023-02-17T15:09:25;39.47;;;26.40;;
10114;SDS011;5097;43.260;27.812;2023-02-17T15:12:12;29.40;;;19.67;;
10114;SDS011;5097;43.260;27.812;2023-02-17T15:14:57;28.73;;;18.33;;
10114;SDS011;5097;43.260;27.812;2023-02-17T15:17:41;31.97;;;20.17;;
10114;SDS011;5097;43.260;27.812;2023-02-17T15:20:27;33.37;;;19.13;;
10114;SDS011;5097;43.260;27.812;2023-02-17T15:23:11;29.20;;;20.50;;
10114;SDS011;5097;43.260;27.812;2023-02-17T15:25:56;35.30;;;22.63;;
10114;SDS011;5097;43.260;27.812;2023-02-17T15:28:41;35.53;;;25.20;;
10114;SDS011;5097;43.260;27.812;2023-02-17T15:31:25;41.47;;;27.53;;
10114;SDS011;5097;43.260;27.812;2023-02-17T15:34:13;36.10;;;26.03;;
10114;SDS011;5097;43.260;27.812;2023-02-17T15:37:00;50.03;;;31.67;;
10114;SDS011;5097;43.260;27.812;2023-02-17T15:39:44;34.90;;;24.67;;
10114;SDS011;5097;43.260;27.812;2023-02-17T15:42:28;63.23;;;42.70;;
10114;SDS011;5097;43.260;27.812;2023-02-17T15:45:12;37.10;;;25.20;;
10114;SDS011;5097;43.260;27.812;2023-02-17T15:48:00;30.97;;;22.17;;
10114;SDS011;5097;43.260;27.812;2023-02-17T15:50:47;31.77;;;23.33;;
10114;SDS011;5097;43.260;27.812;2023-02-17T15:53:32;55.03;;;35.23;;
10114;SDS011;5097;43.260;27.812;2023-02-17T15:56:17;34.03;;;25.57;;
10114;SDS011;5097;43.260;27.812;2023-02-17T15:59:06;61.73;;;42.03;;
10114;SDS011;5097;43.260;27.812;2023-02-17T16:01:54;54.07;;;30.90;;
10114;SDS011;5097;43.260;27.812;2023-02-17T16:04:38;35.87;;;23.83;;
10114;SDS011;5097;43.260;27.812;2023-02-17T16:07:22;28.03;;;22.60;;
10114;SDS011;5097;43.260;27.812;2023-02-17T16:10:09;32.50;;;25.50;;
10114;SDS011;5097;43.260;27.812;2023-02-17T16:12:55;31.23;;;22.57;;
10114;SDS011;5097;43.260;27.812;2023-02-17T16:15:41;35.70;;;26.27;;
10114;SDS011;5097;43.260;27.812;2023-02-17T16:18:25;29.50;;;22.50;;
10114;SDS011;5097;43.260;27.812;2023-02-17T16:21:09;27.30;;;21.13;;